createdAt,value
2018-07-10T00:00:42.226Z,15.44
2018-07-10T00:03:22.647Z,15.37
2018-07-10T00:08:11.371Z,15.40
2018-07-10T00:11:42.959Z,15.15
2018-07-10T00:14:11.326Z,15.21
2018-07-10T00:16:39.637Z,15.29
2018-07-10T00:19:07.979Z,15.09
2018-07-10T00:21:36.274Z,15.12
2018-07-10T00:24:04.643Z,15.12
2018-07-10T00:26:32.982Z,15.15
2018-07-10T00:29:01.323Z,15.17
2018-07-10T00:31:29.747Z,14.88
2018-07-10T00:33:58.070Z,14.90
2018-07-10T00:36:26.515Z,14.94
2018-07-10T00:39:02.082Z,14.83
2018-07-10T00:41:32.781Z,14.92
2018-07-10T00:44:02.014Z,14.74
2018-07-10T00:46:31.578Z,14.74
2018-07-10T00:48:59.978Z,14.65
2018-07-10T00:51:29.468Z,14.58
2018-07-10T00:53:57.827Z,14.75
2018-07-10T00:56:26.146Z,14.71
2018-07-10T00:58:55.662Z,14.56
2018-07-10T01:01:24.826Z,14.69
2018-07-10T01:03:53.250Z,14.65
2018-07-10T01:06:21.887Z,14.83
2018-07-10T01:08:50.345Z,14.61
2018-07-10T01:11:19.461Z,14.70
2018-07-10T01:13:48.866Z,14.50
2018-07-10T01:16:19.270Z,14.49
2018-07-10T01:18:47.757Z,14.43
2018-07-10T01:21:18.496Z,14.24
2018-07-10T01:23:50.396Z,13.73
2018-07-10T01:26:18.719Z,13.68
2018-07-10T01:28:47.074Z,13.58
2018-07-10T01:31:15.403Z,13.74
2018-07-10T01:33:43.791Z,13.34
2018-07-10T01:36:12.070Z,13.40
2018-07-10T01:38:40.403Z,13.35
2018-07-10T01:41:08.711Z,13.38
2018-07-10T01:43:37.063Z,13.33
2018-07-10T01:46:05.574Z,13.42
2018-07-10T01:48:33.938Z,13.14
2018-07-10T01:51:02.276Z,13.55
2018-07-10T01:53:30.623Z,13.49
2018-07-10T01:55:58.923Z,13.50
2018-07-10T01:58:27.465Z,13.37
2018-07-10T02:00:55.757Z,13.42
2018-07-10T02:03:24.138Z,13.59
2018-07-10T02:05:52.500Z,13.37
2018-07-10T02:08:20.883Z,13.21
2018-07-10T02:10:49.239Z,13.24
2018-07-10T02:13:17.573Z,13.48
2018-07-10T02:15:45.920Z,13.35
2018-07-10T02:18:14.209Z,13.60
2018-07-10T02:20:53.365Z,13.52
2018-07-10T02:23:22.117Z,13.57
2018-07-10T02:25:51.012Z,13.61
2018-07-10T02:28:19.839Z,13.57
2018-07-10T02:30:48.762Z,13.34
2018-07-10T02:33:17.331Z,13.56
2018-07-10T02:35:45.711Z,13.65
2018-07-10T02:38:14.378Z,13.60
2018-07-10T02:40:44.214Z,13.52
2018-07-10T02:43:12.620Z,13.68
2018-07-10T02:45:41.038Z,13.59
2018-07-10T02:48:09.357Z,13.67
2018-07-10T02:50:37.918Z,13.59
2018-07-10T02:53:06.456Z,13.47
2018-07-10T02:55:34.854Z,13.43
2018-07-10T02:58:03.174Z,13.66
2018-07-10T03:00:31.522Z,13.71
2018-07-10T03:03:00.991Z,13.62
2018-07-10T03:05:29.359Z,13.64
2018-07-10T03:07:57.806Z,13.59
2018-07-10T03:10:26.231Z,13.65
2018-07-10T03:12:54.686Z,13.80
2018-07-10T03:15:23.045Z,13.55
2018-07-10T03:17:52.692Z,13.51
2018-07-10T03:20:21.158Z,13.56
2018-07-10T03:22:49.516Z,13.41
2018-07-10T03:25:17.932Z,13.05
2018-07-10T03:27:46.516Z,12.98
2018-07-10T03:30:15.198Z,12.72
2018-07-10T03:32:43.614Z,12.77
2018-07-10T03:35:11.936Z,12.71
2018-07-10T03:37:40.383Z,12.64
2018-07-10T03:40:08.742Z,12.65
2018-07-10T03:42:37.075Z,12.69
2018-07-10T03:45:05.436Z,12.79
2018-07-10T03:47:33.756Z,12.98
2018-07-10T03:50:02.103Z,13.03
2018-07-10T03:52:32.873Z,13.39
2018-07-10T03:55:03.011Z,13.31
2018-07-10T03:57:31.411Z,13.47
2018-07-10T04:00:06.784Z,13.24
2018-07-10T04:02:35.091Z,13.27
2018-07-10T04:05:04.079Z,13.44
2018-07-10T04:07:32.807Z,13.25
2018-07-10T04:10:01.140Z,13.33
2018-07-10T04:12:33.565Z,13.19
2018-07-10T04:15:02.562Z,13.08
2018-07-10T04:17:35.710Z,13.26
2018-07-10T04:20:04.051Z,13.11
2018-07-10T04:22:33.235Z,13.41
2018-07-10T04:25:02.175Z,13.29
2018-07-10T04:27:36.174Z,13.27
2018-07-10T04:30:13.008Z,13.39
2018-07-10T04:32:42.042Z,13.21
2018-07-10T04:35:13.730Z,13.21
2018-07-10T04:37:45.538Z,13.51
2018-07-10T04:40:14.103Z,13.09
2018-07-10T04:43:49.255Z,13.31
2018-07-10T04:46:17.653Z,13.18
2018-07-10T04:48:47.507Z,13.23
2018-07-10T04:51:30.867Z,13.23
2018-07-10T04:54:02.892Z,13.12
2018-07-10T04:56:31.395Z,13.16
2018-07-10T04:58:59.750Z,13.11
2018-07-10T05:01:35.394Z,13.07
2018-07-10T05:04:04.783Z,13.29
2018-07-10T05:06:35.457Z,13.47
2018-07-10T05:09:04.987Z,13.41
2018-07-10T05:11:35.644Z,13.35
2018-07-10T05:14:04.918Z,13.78
2018-07-10T05:16:34.278Z,13.30
2018-07-10T05:19:02.778Z,13.45
2018-07-10T05:21:31.195Z,13.21
2018-07-10T05:24:01.428Z,13.37
2018-07-10T05:26:29.831Z,13.26
2018-07-10T05:28:58.396Z,12.97
2018-07-10T05:31:28.298Z,13.15
2018-07-10T05:33:56.927Z,13.10
2018-07-10T05:36:25.509Z,13.13
2018-07-10T05:39:10.889Z,13.05
2018-07-10T05:41:40.819Z,13.03
2018-07-10T05:44:09.280Z,12.85
2018-07-10T05:46:37.686Z,12.88
2018-07-10T05:49:06.675Z,13.05
2018-07-10T05:51:38.362Z,13.03
2018-07-10T05:54:08.355Z,13.03
2018-07-10T05:56:37.749Z,13.03
2018-07-10T05:59:07.266Z,13.00
2018-07-10T06:01:37.087Z,13.16
2018-07-10T06:04:05.998Z,13.37
2018-07-10T06:06:34.544Z,13.41
2018-07-10T06:09:02.987Z,13.35
2018-07-10T06:11:31.325Z,13.34
2018-07-10T06:14:07.145Z,13.67
2018-07-10T06:16:40.828Z,13.81
2018-07-10T06:19:10.418Z,13.80
2018-07-10T06:21:43.373Z,13.73
2018-07-10T06:24:16.228Z,13.77
2018-07-10T06:26:45.309Z,13.66
2018-07-10T06:29:20.008Z,13.80
2018-07-10T06:31:51.223Z,13.78
2018-07-10T06:34:21.091Z,13.88
2018-07-10T06:36:54.430Z,13.92
2018-07-10T06:39:23.147Z,14.03
2018-07-10T06:42:15.328Z,14.22
2018-07-10T06:44:47.381Z,14.04
2018-07-10T06:47:20.316Z,13.85
2018-07-10T06:52:48.850Z,14.06
2018-07-10T06:55:18.360Z,13.93
2018-07-10T06:57:50.747Z,14.15
2018-07-10T07:00:19.051Z,14.25
2018-07-10T07:02:47.925Z,14.13
2018-07-10T07:05:16.398Z,14.09
2018-07-10T07:07:57.286Z,14.25
2018-07-10T07:10:43.129Z,14.45
2018-07-10T07:13:33.739Z,14.59
2018-07-10T07:16:14.035Z,14.14
2018-07-10T07:18:57.918Z,14.42
2018-07-10T07:21:49.628Z,14.59
2018-07-10T07:31:00.332Z,14.98
2018-07-10T07:33:46.308Z,15.00
2018-07-10T07:36:42.791Z,15.01
2018-07-10T07:42:11.334Z,14.78
2018-07-10T07:45:01.252Z,14.80
2018-07-10T07:47:50.293Z,15.02
2018-07-10T07:50:21.412Z,14.86
2018-07-10T07:53:01.738Z,14.98
2018-07-10T07:55:39.539Z,15.04
2018-07-10T07:58:34.020Z,14.94
2018-07-10T08:04:08.421Z,15.50
2018-07-10T08:07:16.907Z,14.93
2018-07-10T08:19:34.732Z,15.49
2018-07-10T08:22:06.135Z,15.47
2018-07-10T08:24:51.554Z,15.68
2018-07-10T08:28:01.309Z,15.28
2018-07-10T08:30:37.297Z,15.49
2018-07-10T08:33:14.222Z,15.33
2018-07-10T08:35:51.587Z,14.92
2018-07-10T08:38:57.392Z,15.43
2018-07-10T08:41:42.740Z,15.36
2018-07-10T08:44:26.620Z,15.14
2018-07-10T08:46:59.582Z,15.42
2018-07-10T08:49:34.338Z,15.13
2018-07-10T08:52:10.291Z,14.95
2018-07-10T08:54:47.603Z,14.52
2018-07-10T08:57:18.234Z,14.69
2018-07-10T08:59:52.327Z,14.50
2018-07-10T09:02:26.055Z,14.55
2018-07-10T09:05:00.745Z,14.34
2018-07-10T09:07:35.229Z,14.22
2018-07-10T09:10:16.495Z,14.37
2018-07-10T09:13:04.382Z,14.35
2018-07-10T09:15:43.479Z,14.58
2018-07-10T09:18:17.495Z,14.52
2018-07-10T09:21:00.293Z,14.28
2018-07-10T09:23:39.159Z,14.40
2018-07-10T09:26:12.938Z,15.04
2018-07-10T09:28:45.386Z,15.30
2018-07-10T09:31:15.270Z,14.96
2018-07-10T09:33:56.912Z,15.14
2018-07-10T09:36:39.019Z,14.69
2018-07-10T09:39:18.587Z,15.26
2018-07-10T09:41:59.012Z,15.12
2018-07-10T09:44:53.312Z,15.34
2018-07-10T09:47:34.887Z,15.49
2018-07-10T09:50:13.452Z,15.64
2018-07-10T09:52:55.529Z,15.41
2018-07-10T09:55:41.828Z,15.49
2018-07-10T09:58:15.590Z,15.60
2018-07-10T10:00:56.765Z,15.32
2018-07-10T10:03:29.635Z,15.14
2018-07-10T10:06:02.666Z,15.28
2018-07-10T10:08:36.579Z,15.14
2018-07-10T10:11:06.690Z,15.05
2018-07-10T10:13:35.853Z,15.04
2018-07-10T10:16:07.888Z,15.28
2018-07-10T10:18:39.828Z,15.13
2018-07-10T10:21:12.498Z,15.16
2018-07-10T10:23:48.884Z,14.97
2018-07-10T10:26:25.025Z,14.62
2018-07-10T10:29:05.367Z,14.32
2018-07-10T10:31:38.088Z,14.34
2018-07-10T10:34:12.464Z,14.36
2018-07-10T10:36:49.556Z,14.52
2018-07-10T10:39:20.094Z,14.50
2018-07-10T10:41:55.216Z,14.69
2018-07-10T10:44:29.094Z,14.88
2018-07-10T10:47:05.557Z,15.02
2018-07-10T10:49:35.766Z,14.86
2018-07-10T10:52:09.829Z,15.20
2018-07-10T10:54:40.986Z,15.11
2018-07-10T10:57:13.854Z,15.27
2018-07-10T10:59:50.641Z,15.18
2018-07-10T11:02:28.466Z,15.27
2018-07-10T11:05:03.333Z,15.18
2018-07-10T12:49:11.268Z,15.17
2018-07-10T12:51:54.373Z,15.10
2018-07-10T12:54:43.698Z,14.35
2018-07-10T12:57:33.058Z,15.14
2018-07-10T13:02:59.754Z,15.52
2018-07-10T13:05:39.332Z,15.92
2018-07-10T13:08:18.403Z,16.02
2018-07-10T13:11:08.835Z,15.94
2018-07-10T13:13:44.207Z,15.49
2018-07-10T13:16:18.535Z,15.35
2018-07-10T13:18:50.757Z,15.35
2018-07-10T13:21:27.418Z,15.08
2018-07-10T13:24:01.724Z,14.96
2018-07-10T13:26:51.600Z,15.12
2018-07-10T13:29:27.531Z,15.46
2018-07-10T13:32:23.363Z,15.26
2018-07-10T13:34:59.657Z,15.17
2018-07-10T13:37:33.307Z,15.07
2018-07-10T13:40:07.185Z,14.72
2018-07-10T13:43:08.809Z,14.64
2018-07-10T13:45:44.487Z,14.35
2018-07-10T13:48:28.377Z,14.57
2018-07-10T13:50:59.019Z,14.50
2018-07-10T13:53:32.173Z,14.71
2018-07-10T13:56:17.566Z,14.84
2018-07-10T13:59:09.699Z,14.51
2018-07-10T14:01:52.782Z,14.69
2018-07-10T14:04:31.207Z,14.54
2018-07-10T14:07:07.540Z,14.47
2018-07-10T14:09:49.475Z,14.63
2018-07-10T14:15:11.331Z,14.53
2018-07-10T14:17:45.417Z,14.69
2018-07-10T14:20:34.251Z,15.28
2018-07-10T14:23:11.596Z,15.38
2018-07-10T14:25:44.855Z,15.16
2018-07-10T14:31:04.430Z,15.24
2018-07-10T14:33:40.447Z,15.40
2018-07-10T14:36:16.874Z,15.18
2018-07-10T14:38:56.545Z,15.32
2018-07-10T14:41:38.006Z,15.01
2018-07-10T14:44:25.774Z,15.20
2018-07-10T14:46:59.285Z,15.15
2018-07-10T14:49:51.540Z,15.08
2018-07-10T14:52:29.535Z,14.70
2018-07-10T14:55:17.189Z,14.82
2018-07-10T14:57:54.057Z,14.74
2018-07-10T15:00:29.179Z,14.90
2018-07-10T15:05:42.590Z,14.54
2018-07-10T15:08:13.499Z,14.54
2018-07-10T15:10:46.818Z,14.44
2018-07-10T15:13:22.218Z,14.56
2018-07-10T15:16:03.511Z,14.65
2018-07-10T15:18:51.990Z,14.84
2018-07-10T15:21:25.135Z,14.62
2018-07-10T15:23:54.873Z,14.55
2018-07-10T15:26:26.013Z,14.59
2018-07-10T15:29:21.534Z,14.14
2018-07-10T15:31:54.157Z,14.43
2018-07-10T15:34:28.616Z,14.49
2018-07-10T15:39:39.407Z,14.42
2018-07-10T15:42:09.813Z,14.31
2018-07-10T15:44:46.884Z,14.57
2018-07-10T15:47:16.958Z,14.41
2018-07-10T15:49:48.393Z,14.55
2018-07-10T15:52:20.034Z,14.54
2018-07-10T15:54:49.584Z,14.29
2018-07-10T15:57:24.634Z,14.34
2018-07-10T15:59:54.184Z,14.40
2018-07-10T16:02:25.522Z,14.35
2018-07-10T16:04:55.486Z,14.24
2018-07-10T16:10:20.742Z,14.57
2018-07-10T16:12:59.297Z,14.41
2018-07-10T16:15:39.382Z,14.47
2018-07-10T16:18:14.583Z,14.34
2018-07-10T16:21:06.673Z,14.69
2018-07-10T16:23:41.934Z,14.46
2018-07-10T16:26:41.683Z,14.44
2018-07-10T16:29:16.809Z,14.55
2018-07-10T16:31:54.493Z,14.49
2018-07-10T16:34:28.784Z,14.29
2018-07-10T16:37:05.962Z,14.54
2018-07-10T16:39:47.380Z,14.40
2018-07-10T16:48:19.175Z,14.51
2018-07-10T16:51:31.165Z,14.53
2018-07-10T16:54:07.808Z,14.70
2018-07-10T16:56:45.886Z,14.61
2018-07-10T16:59:39.448Z,14.83
2018-07-10T17:02:09.345Z,14.53
2018-07-10T17:04:44.555Z,14.62
2018-07-10T17:07:25.676Z,14.64
2018-07-10T17:10:03.644Z,14.45
2018-07-10T17:12:43.989Z,14.38
2018-07-10T17:18:02.516Z,14.51
2018-07-10T17:20:39.293Z,14.48
2018-07-10T17:26:07.662Z,14.77
2018-07-10T17:28:49.067Z,14.65
2018-07-10T17:31:37.214Z,14.72
2018-07-10T17:34:17.297Z,14.77
2018-07-10T17:37:18.982Z,14.74
2018-07-10T17:39:57.119Z,14.75
2018-07-10T17:42:39.759Z,14.76
2018-07-10T17:45:25.524Z,14.84
2018-07-10T17:48:14.264Z,14.67
2018-07-10T17:50:45.921Z,14.54
2018-07-10T17:53:33.494Z,14.72
2018-07-10T17:56:08.990Z,14.61
2018-07-10T17:58:48.172Z,14.61
2018-07-10T18:01:22.197Z,14.62
2018-07-10T18:06:59.097Z,14.93
2018-07-10T18:09:30.682Z,14.98
2018-07-10T18:12:06.072Z,14.74
2018-07-10T18:14:36.285Z,14.83
2018-07-10T18:17:14.487Z,14.77
2018-07-10T18:19:52.418Z,14.80
2018-07-10T18:22:23.790Z,14.87
2018-07-10T18:24:56.506Z,14.75
2018-07-10T18:27:30.488Z,14.76
2018-07-10T18:30:01.611Z,14.65
2018-07-10T18:32:32.687Z,14.72
2018-07-10T18:35:03.396Z,14.69
2018-07-10T18:37:37.425Z,14.74
2018-07-10T18:40:09.370Z,14.67
2018-07-10T18:42:47.231Z,14.66
2018-07-10T18:45:23.915Z,14.67
2018-07-10T18:47:57.306Z,14.59
2018-07-10T18:50:35.077Z,14.69
2018-07-10T18:53:19.102Z,14.68
2018-07-10T18:59:19.474Z,14.72
2018-07-10T19:01:58.471Z,14.59
2018-07-10T19:04:31.047Z,14.61
2018-07-10T19:06:59.577Z,14.38
2018-07-10T19:09:33.797Z,14.28
2018-07-10T19:12:04.013Z,14.31
2018-07-10T19:14:32.468Z,14.31
2018-07-10T19:17:00.884Z,14.41
2018-07-10T19:19:29.487Z,14.44
2018-07-10T19:22:03.064Z,14.52
2018-07-10T19:24:31.664Z,14.38
2018-07-10T19:27:00.727Z,14.20
2018-07-10T19:29:35.805Z,14.00
2018-07-10T19:32:04.680Z,14.07
2018-07-10T19:34:33.198Z,14.11
2018-07-10T19:37:01.743Z,14.15
2018-07-10T19:39:30.191Z,14.15
2018-07-10T19:41:59.036Z,14.09
2018-07-10T19:44:27.581Z,13.97
2018-07-10T19:46:56.450Z,13.97
2018-07-10T19:49:25.222Z,14.10
2018-07-10T19:51:53.858Z,14.00
2018-07-10T19:54:22.468Z,13.86
2018-07-10T19:56:50.988Z,13.75
2018-07-10T19:59:19.519Z,13.67
2018-07-10T20:01:53.549Z,13.70
2018-07-10T20:04:43.202Z,13.53
2018-07-10T20:07:22.552Z,13.45
2018-07-10T20:09:55.068Z,13.52
2018-07-10T20:12:34.338Z,13.46
2018-07-10T20:17:23.199Z,13.45
2018-07-10T20:20:10.137Z,13.75
2018-07-10T20:22:52.182Z,13.78
2018-07-10T20:25:29.887Z,13.77
2018-07-10T20:28:04.600Z,13.79
2018-07-10T20:30:45.617Z,13.75
2018-07-10T20:34:21.601Z,13.72
2018-07-10T20:36:54.826Z,13.92
2018-07-10T20:39:33.046Z,14.01
2018-07-10T20:42:02.700Z,14.09
2018-07-10T20:44:33.246Z,14.02
2018-07-10T20:47:04.092Z,14.06
2018-07-10T20:49:46.579Z,14.02
2018-07-10T20:52:18.657Z,13.46
2018-07-10T20:54:54.478Z,13.43
2018-07-10T20:57:30.444Z,13.46
2018-07-10T21:00:08.786Z,13.52
2018-07-10T21:03:47.951Z,13.47
2018-07-10T21:07:04.090Z,13.51
2018-07-10T21:09:47.446Z,13.42
2018-07-10T21:12:18.880Z,13.39
2018-07-10T21:15:23.396Z,13.47
2018-07-10T21:19:01.440Z,13.47
2018-07-10T21:21:45.816Z,13.34
2018-07-10T21:24:17.856Z,13.38
2018-07-10T21:26:54.096Z,13.41
2018-07-10T21:30:32.963Z,13.35
2018-07-10T21:34:14.956Z,13.55
2018-07-10T21:37:55.665Z,13.74
2018-07-10T21:40:31.789Z,13.76
2018-07-10T21:44:14.587Z,13.84
2018-07-10T21:46:56.151Z,13.87
2018-07-10T21:50:01.339Z,13.73
2018-07-10T21:52:30.080Z,13.77
2018-07-10T21:54:58.513Z,13.78
2018-07-10T21:57:32.574Z,13.81
2018-07-10T22:00:01.400Z,13.62
2018-07-10T22:02:30.458Z,13.46
2018-07-10T22:04:59.467Z,13.70
2018-07-10T22:07:28.833Z,13.60
2018-07-10T22:10:01.658Z,13.80
2018-07-10T22:12:30.007Z,13.62
2018-07-10T22:14:58.399Z,13.53
2018-07-10T22:17:27.686Z,13.71
2018-07-10T22:19:57.143Z,13.75
2018-07-10T22:22:30.078Z,13.62
2018-07-10T22:24:59.974Z,13.58
2018-07-10T22:27:28.375Z,13.47
2018-07-10T22:30:04.715Z,13.54
2018-07-10T22:32:47.063Z,13.65
2018-07-10T22:35:16.355Z,13.79
2018-07-10T22:37:44.698Z,13.81
2018-07-10T22:40:13.059Z,13.66
2018-07-10T22:42:41.338Z,13.78
2018-07-10T22:45:09.767Z,13.77
2018-07-10T22:47:39.751Z,13.58
2018-07-10T22:50:12.979Z,13.74
2018-07-10T22:52:51.856Z,13.79
2018-07-10T22:55:22.072Z,13.69
2018-07-10T22:57:52.108Z,13.77
2018-07-10T23:00:32.485Z,13.70
2018-07-10T23:03:01.659Z,13.77
2018-07-10T23:05:30.140Z,13.93
2018-07-10T23:07:58.459Z,13.76
2018-07-10T23:10:27.411Z,13.80
2018-07-10T23:12:55.695Z,13.79
2018-07-10T23:15:24.037Z,13.73
2018-07-10T23:17:52.354Z,13.69
2018-07-10T23:20:22.249Z,13.67
2018-07-10T23:22:54.902Z,13.88
2018-07-10T23:25:25.288Z,13.79
2018-07-10T23:28:01.660Z,13.59
2018-07-10T23:30:35.427Z,13.55
2018-07-10T23:33:03.880Z,13.67
2018-07-10T23:35:33.519Z,13.78
2018-07-10T23:38:08.793Z,13.54
2018-07-10T23:40:39.543Z,13.46
2018-07-10T23:43:07.865Z,13.64
2018-07-10T23:45:36.283Z,13.35
2018-07-10T23:48:05.439Z,13.29
2018-07-10T23:50:34.767Z,13.16
2018-07-10T23:53:16.063Z,13.33
2018-07-10T23:55:44.351Z,13.41
2018-07-10T23:58:13.157Z,13.45
